Time;durP1;ratioP1;P1;durP2;ratioP2;P2;SDS_P1;SDS_P2;PMS_P1;PMS_P2;Temp;Humidity;BMP_temperature;BMP_pressure;BME280_temperature;BME280_humidity;BME280_pressure;Samples;Min_cycle;Max_cycle;Signal;HPM_P1;HPM_P2
2023/05/29 00:02:14;;;;;;;16.90;2.50;;;10.20;99.90;;;;;;4990249;28;20037;-66
2023/05/29 00:04:40;;;;;;;21.60;2.42;;;10.20;99.90;;;;;;4974012;28;20053;-66
2023/05/29 00:07:06;;;;;;;20.90;2.65;;;10.20;99.90;;;;;;5044392;28;20360;-66
2023/05/29 00:09:31;;;;;;;24.92;3.08;;;10.20;99.90;;;;;;4998429;28;20116;-66
2023/05/29 00:11:57;;;;;;;20.98;2.80;;;10.20;99.90;;;;;;5026839;28;20093;-66
2023/05/29 00:14:23;;;;;;;16.00;2.28;;;10.20;99.90;;;;;;5012917;28;20415;-66
2023/05/29 00:16:50;;;;;;;23.77;3.00;;;10.10;99.90;;;;;;5045304;28;20045;-66
2023/05/29 00:19:19;;;;;;;27.73;3.08;;;10.10;99.90;;;;;;4984162;28;20500;-66
2023/05/29 00:21:47;;;;;;;20.67;3.08;;;10.00;99.90;;;;;;4994920;28;20076;-66
2023/05/29 00:24:17;;;;;;;25.50;3.10;;;10.00;99.90;;;;;;5012494;28;20076;-66
2023/05/29 00:26:43;;;;;;;19.40;2.38;;;10.00;99.90;;;;;;4996475;28;20041;-66
2023/05/29 00:29:09;;;;;;;25.77;2.97;;;9.90;99.90;;;;;;4985619;28;20132;-66
2023/05/29 00:31:37;;;;;;;22.45;2.42;;;9.90;99.90;;;;;;4992983;28;20110;-66
2023/05/29 00:34:03;;;;;;;22.67;2.92;;;10.00;99.90;;;;;;5011770;28;20033;-65
2023/05/29 00:36:29;;;;;;;25.02;3.13;;;10.00;99.90;;;;;;5044857;28;20499;-65
2023/05/29 00:38:55;;;;;;;23.90;2.65;;;10.00;99.90;;;;;;5035943;28;20197;-66
2023/05/29 00:41:21;;;;;;;18.58;2.83;;;10.10;99.90;;;;;;4994555;28;20612;-65
2023/05/29 00:43:46;;;;;;;18.48;2.20;;;10.20;99.90;;;;;;4993251;28;20073;-65
2023/05/29 00:46:14;;;;;;;22.70;2.50;;;10.30;99.90;;;;;;5028524;28;20041;-66
2023/05/29 00:48:41;;;;;;;23.83;2.90;;;10.40;1.00;;;;;;4994822;28;20030;-66
2023/05/29 00:51:09;;;;;;;19.02;2.75;;;10.50;1.00;;;;;;5010538;28;20902;-66
2023/05/29 00:53:35;;;;;;;26.75;3.20;;;10.50;1.00;;;;;;5045104;28;20138;-66
2023/05/29 00:56:02;;;;;;;24.83;2.67;;;10.60;99.90;;;;;;5045068;28;20045;-65
2023/05/29 00:58:27;;;;;;;26.65;2.88;;;10.60;99.90;;;;;;4991004;28;20041;-66
2023/05/29 01:00:53;;;;;;;21.88;2.65;;;10.70;99.90;;;;;;5025539;28;20053;-67
2023/05/29 01:03:20;;;;;;;17.33;2.35;;;10.70;99.90;;;;;;5025986;28;20057;-66
2023/05/29 01:05:48;;;;;;;26.00;2.88;;;10.70;99.90;;;;;;5039554;28;20053;-66
2023/05/29 01:08:14;;;;;;;21.00;2.45;;;10.80;99.90;;;;;;5031360;28;20135;-66
2023/05/29 01:10:42;;;;;;;22.98;3.08;;;10.70;99.90;;;;;;5016032;28;20041;-66
2023/05/29 01:13:15;;;;;;;17.00;2.65;;;10.60;99.90;;;;;;4992575;28;20089;-66
2023/05/29 01:15:58;;;;;;;21.60;2.42;;;10.60;99.90;;;;;;4993861;28;20261;-65
2023/05/29 01:18:37;;;;;;;19.83;2.35;;;10.50;99.90;;;;;;5024779;28;20046;-66
2023/05/29 01:21:20;;;;;;;18.40;2.63;;;10.40;99.90;;;;;;5008870;28;20050;-66
2023/05/29 01:24:19;;;;;;;17.42;2.03;;;10.40;99.90;;;;;;5012339;28;20188;-66
2023/05/29 01:26:48;;;;;;;19.20;2.10;;;10.40;99.90;;;;;;5036695;28;20076;-65
2023/05/29 01:29:17;;;;;;;17.73;1.40;;;10.50;99.90;;;;;;5008866;28;20127;-66
2023/05/29 01:31:45;;;;;;;15.88;1.70;;;10.50;99.90;;;;;;5018979;28;20113;-66
2023/05/29 01:34:11;;;;;;;17.50;1.67;;;10.60;99.90;;;;;;5012939;28;20045;-66
2023/05/29 01:36:37;;;;;;;15.77;1.52;;;10.50;99.90;;;;;;4999809;28;20425;-65
2023/05/29 01:39:03;;;;;;;19.23;2.05;;;10.50;99.90;;;;;;5003252;28;20049;-66
2023/05/29 01:41:30;;;;;;;16.80;1.95;;;10.40;99.90;;;;;;4993321;28;20049;-65
2023/05/29 01:43:58;;;;;;;15.48;1.67;;;10.40;99.90;;;;;;5027170;28;20049;-66
2023/05/29 01:46:25;;;;;;;18.17;1.88;;;10.30;99.90;;;;;;4994378;28;20052;-66
2023/05/29 01:48:51;;;;;;;15.68;2.10;;;10.30;99.90;;;;;;5008797;28;20221;-65
2023/05/29 01:51:17;;;;;;;13.32;2.00;;;10.30;99.90;;;;;;5008997;28;20033;-66
2023/05/29 01:53:44;;;;;;;14.85;1.25;;;10.30;99.90;;;;;;5009758;28;20773;-66
2023/05/29 01:56:10;;;;;;;17.40;2.10;;;10.40;99.90;;;;;;5043743;28;20080;-65
2023/05/29 01:58:38;;;;;;;16.92;2.35;;;10.40;99.90;;;;;;5029996;28;20508;-65
2023/05/29 02:01:04;;;;;;;19.70;2.15;;;10.40;99.90;;;;;;5008190;28;20223;-66
2023/05/29 02:03:30;;;;;;;18.13;2.08;;;10.50;99.90;;;;;;5025546;28;20151;-66
2023/05/29 02:05:58;;;;;;;10.23;1.70;;;10.50;99.90;;;;;;5010267;28;20041;-65
2023/05/29 02:08:24;;;;;;;13.70;1.73;;;10.50;99.90;;;;;;5010370;28;20053;-66
2023/05/29 02:10:50;;;;;;;12.45;1.98;;;10.60;99.90;;;;;;5042625;28;20041;-66
2023/05/29 02:13:16;;;;;;;16.00;1.60;;;10.60;99.90;;;;;;5004328;28;20801;-67
2023/05/29 02:15:42;;;;;;;18.48;1.98;;;10.70;99.90;;;;;;5024491;28;20037;-66
2023/05/29 02:18:14;;;;;;;15.10;1.80;;;10.70;99.90;;;;;;5026683;28;20248;-67
2023/05/29 02:20:40;;;;;;;16.83;2.10;;;10.70;99.90;;;;;;4994443;28;20048;-67
2023/05/29 02:23:06;;;;;;;15.70;2.00;;;10.70;99.90;;;;;;5024847;28;20416;-66
2023/05/29 02:25:31;;;;;;;16.80;1.92;;;10.80;99.90;;;;;;4991081;28;20060;-65
2023/05/29 02:27:57;;;;;;;19.25;2.30;;;10.80;99.90;;;;;;4991147;28;20054;-65
2023/05/29 02:30:23;;;;;;;22.33;2.60;;;10.80;99.90;;;;;;5012457;28;20421;-65
2023/05/29 02:32:48;;;;;;;15.85;1.70;;;10.90;99.90;;;;;;4992821;28;20626;-65
2023/05/29 02:35:15;;;;;;;17.30;1.98;;;10.90;99.90;;;;;;5023863;28;20137;-65
2023/05/29 02:37:43;;;;;;;18.40;2.15;;;10.90;99.90;;;;;;5024607;28;20419;-65
2023/05/29 02:40:09;;;;;;;15.68;1.42;;;10.90;99.90;;;;;;5008162;28;20157;-65
2023/05/29 02:42:35;;;;;;;16.48;1.73;;;10.90;99.90;;;;;;4995815;28;20041;-65
2023/05/29 02:45:01;;;;;;;17.48;2.17;;;10.90;99.90;;;;;;4993392;28;20323;-65
2023/05/29 02:47:27;;;;;;;15.50;2.13;;;10.80;99.90;;;;;;5007167;28;20551;-65
2023/05/29 02:49:52;;;;;;;19.33;2.60;;;10.80;99.90;;;;;;4999929;28;20100;-65
2023/05/29 02:52:18;;;;;;;23.38;2.35;;;10.80;99.90;;;;;;5008079;28;20415;-65
2023/05/29 02:54:44;;;;;;;16.63;1.73;;;10.70;99.90;;;;;;5025813;28;20130;-65
2023/05/29 02:57:10;;;;;;;17.90;2.08;;;10.70;99.90;;;;;;5026630;28;20041;-65
2023/05/29 02:59:36;;;;;;;11.85;1.88;;;10.70;99.90;;;;;;5019908;28;20638;-65
2023/05/29 03:02:02;;;;;;;16.15;1.98;;;10.80;99.90;;;;;;4998127;28;20053;-65
2023/05/29 03:04:28;;;;;;;16.30;2.08;;;10.80;99.90;;;;;;4992275;28;20392;-65
2023/05/29 03:06:54;;;;;;;18.35;2.08;;;10.80;99.90;;;;;;4990506;28;20276;-65
2023/05/29 03:09:20;;;;;;;16.13;1.70;;;10.80;99.90;;;;;;5023172;28;20511;-65
2023/05/29 03:11:47;;;;;;;14.73;1.95;;;10.80;99.90;;;;;;4974575;28;21159;-65
2023/05/29 03:14:13;;;;;;;17.52;1.83;;;10.90;99.90;;;;;;4994095;28;20064;-66
2023/05/29 03:16:40;;;;;;;20.73;2.30;;;10.90;99.90;;;;;;5009176;28;20708;-66
2023/05/29 03:19:07;;;;;;;19.90;2.10;;;10.80;99.90;;;;;;4997166;28;20400;-66
2023/05/29 03:21:33;;;;;;;15.60;1.80;;;10.90;99.90;;;;;;4990976;28;20045;-65
2023/05/29 03:24:00;;;;;;;16.40;2.15;;;10.90;99.90;;;;;;5038883;28;20050;-65
2023/05/29 03:26:26;;;;;;;14.15;1.75;;;10.90;99.90;;;;;;4990227;28;20049;-65
2023/05/29 03:28:52;;;;;;;18.17;2.55;;;10.90;99.90;;;;;;5008058;28;20069;-66
2023/05/29 03:31:17;;;;;;;20.45;2.30;;;10.90;99.90;;;;;;4992297;28;20069;-65
2023/05/29 03:33:43;;;;;;;18.33;2.00;;;10.90;99.90;;;;;;4990364;28;20088;-65
2023/05/29 03:36:09;;;;;;;17.48;2.10;;;10.90;99.90;;;;;;5008381;28;20072;-66
2023/05/29 03:38:34;;;;;;;16.27;2.63;;;10.90;99.90;;;;;;4974976;28;20088;-65
2023/05/29 03:41:00;;;;;;;16.13;1.88;;;10.90;99.90;;;;;;5023422;28;20451;-65
2023/05/29 03:43:26;;;;;;;14.15;2.22;;;10.90;99.90;;;;;;4978539;28;20326;-65
2023/05/29 03:45:51;;;;;;;16.75;1.98;;;10.80;99.90;;;;;;5028010;28;20717;-65
2023/05/29 03:48:17;;;;;;;15.48;1.65;;;10.80;99.90;;;;;;5027472;28;20266;-67
2023/05/29 03:50:44;;;;;;;14.43;1.98;;;10.70;73.70;;;;;;4993682;28;20531;-66
2023/05/29 03:53:10;;;;;;;17.63;1.90;;;10.70;95.40;;;;;;5029249;28;20053;-66
2023/05/29 03:55:35;;;;;;;12.95;1.80;;;10.80;99.90;;;;;;5031144;28;20050;-66
2023/05/29 03:58:01;;;;;;;12.77;1.70;;;10.80;99.90;;;;;;4978757;28;20294;-66
2023/05/29 04:00:27;;;;;;;15.50;1.90;;;10.80;99.90;;;;;;5001345;28;20361;-66
2023/05/29 04:02:52;;;;;;;19.80;2.55;;;10.80;99.90;;;;;;4994339;28;20042;-66
2023/05/29 04:05:18;;;;;;;17.15;1.80;;;10.80;99.90;;;;;;5027512;28;20102;-66
2023/05/29 04:07:44;;;;;;;19.52;2.25;;;10.90;99.90;;;;;;4977377;28;20042;-66
2023/05/29 04:10:10;;;;;;;12.82;1.80;;;10.90;99.90;;;;;;5027638;28;20084;-66
2023/05/29 04:12:35;;;;;;;18.98;2.83;;;10.90;99.90;;;;;;4994023;28;20038;-66
2023/05/29 04:15:01;;;;;;;19.73;2.63;;;10.90;99.90;;;;;;4993734;28;20540;-66
2023/05/29 04:17:27;;;;;;;16.80;2.45;;;10.90;99.90;;;;;;4977982;28;20475;-66
2023/05/29 04:19:52;;;;;;;16.52;2.20;;;11.00;99.90;;;;;;4993528;28;20037;-66
2023/05/29 04:22:19;;;;;;;21.48;2.15;;;10.90;99.90;;;;;;4979101;28;20125;-66
2023/05/29 04:24:46;;;;;;;16.20;1.95;;;11.00;99.90;;;;;;4978342;28;20041;-66
2023/05/29 04:27:13;;;;;;;17.77;2.60;;;11.00;99.90;;;;;;4993644;28;20444;-66
2023/05/29 04:29:42;;;;;;;19.70;2.63;;;10.90;94.90;;;;;;5029727;28;20049;-66
2023/05/29 04:32:10;;;;;;;17.98;2.35;;;11.00;99.90;;;;;;5006914;28;20078;-66
2023/05/29 04:34:39;;;;;;;16.67;2.58;;;11.00;99.90;;;;;;5005716;28;20413;-65
2023/05/29 04:37:05;;;;;;;16.00;2.47;;;11.10;99.90;;;;;;5045257;28;20276;-66
2023/05/29 04:39:31;;;;;;;17.52;2.70;;;11.10;99.30;;;;;;4998987;28;20045;-66
2023/05/29 04:42:00;;;;;;;19.75;2.67;;;11.20;99.90;;;;;;5028574;28;20389;-66
2023/05/29 04:44:26;;;;;;;17.45;2.42;;;11.20;99.90;;;;;;5040969;28;20546;-66
2023/05/29 04:46:52;;;;;;;16.73;2.97;;;11.20;92.60;;;;;;4993833;28;20046;-66
2023/05/29 04:49:18;;;;;;;14.10;2.05;;;11.20;44.30;;;;;;4999185;28;20053;-66
2023/05/29 04:51:46;;;;;;;18.00;2.63;;;11.20;87.40;;;;;;5027763;28;20053;-66
2023/05/29 04:54:12;;;;;;;17.55;3.03;;;11.20;93.20;;;;;;5044019;28;20128;-66
2023/05/29 04:56:40;;;;;;;18.83;3.08;;;11.30;99.90;;;;;;4989692;28;20482;-66
2023/05/29 04:59:06;;;;;;;21.00;2.83;;;11.40;99.90;;;;;;5000151;28;20524;-66
2023/05/29 05:01:33;;;;;;;18.75;2.63;;;11.40;99.90;;;;;;5044391;28;20037;-66
2023/05/29 05:03:59;;;;;;;22.85;2.92;;;11.50;99.90;;;;;;5040734;28;20283;-66
2023/05/29 05:06:25;;;;;;;19.73;3.40;;;11.60;99.90;;;;;;5035956;28;20034;-66
2023/05/29 05:08:52;;;;;;;22.23;2.97;;;11.60;86.70;;;;;;4976700;28;20134;-66
2023/05/29 05:11:23;;;;;;;17.42;2.30;;;11.70;40.40;;;;;;5007924;28;20253;-66
2023/05/29 05:13:49;;;;;;;19.90;3.30;;;11.70;44.80;;;;;;5010878;28;20449;-66
2023/05/29 05:16:16;;;;;;;16.52;2.42;;;11.60;35.20;;;;;;5008608;28;20514;-66
2023/05/29 05:18:43;;;;;;;16.52;2.47;;;11.70;10.40;;;;;;5003509;28;20109;-66
2023/05/29 05:21:08;;;;;;;22.35;3.05;;;11.70;33.20;;;;;;4994481;28;20045;-66
2023/05/29 05:23:34;;;;;;;22.13;3.38;;;11.90;61.50;;;;;;5025447;28;20305;-66
2023/05/29 05:26:00;;;;;;;18.17;2.90;;;11.90;47.90;;;;;;4994906;28;20045;-65
2023/05/29 05:28:26;;;;;;;18.17;3.13;;;12.00;1.00;;;;;;4994804;28;20411;-65
2023/05/29 05:30:52;;;;;;;22.38;3.38;;;11.90;7.70;;;;;;4997654;28;20116;-65
2023/05/29 05:33:18;;;;;;;19.33;3.13;;;11.90;2.90;;;;;;4994468;28;20048;-66
2023/05/29 05:35:44;;;;;;;17.02;2.78;;;11.90;1.00;;;;;;4994210;28;20061;-66
2023/05/29 05:38:09;;;;;;;22.35;2.78;;;11.90;1.00;;;;;;5014751;28;20304;-65
2023/05/29 05:40:36;;;;;;;21.52;3.13;;;12.00;1.00;;;;;;5009768;28;20058;-66
2023/05/29 05:43:01;;;;;;;17.70;2.90;;;12.10;3.00;;;;;;5016904;28;20046;-66
2023/05/29 05:45:27;;;;;;;21.30;3.28;;;12.30;1.00;;;;;;4994492;28;20038;-66
2023/05/29 05:47:53;;;;;;;23.20;3.42;;;12.50;1.00;;;;;;4992368;28;20040;-66
2023/05/29 05:50:18;;;;;;;24.58;3.75;;;12.50;1.00;;;;;;4975978;28;20050;-64
2023/05/29 05:52:45;;;;;;;17.90;3.15;;;12.50;1.00;;;;;;5007036;28;20038;-65
2023/05/29 05:55:10;;;;;;;19.48;3.30;;;12.40;1.00;;;;;;5041340;28;20044;-65
2023/05/29 05:57:36;;;;;;;23.20;3.75;;;12.30;1.00;;;;;;5025489;28;20053;-65
2023/05/29 06:00:12;;;;;;;17.38;2.65;;;12.20;1.00;;;;;;5041935;28;20041;-65
2023/05/29 06:02:41;;;;;;;18.73;3.13;;;12.30;1.00;;;;;;5015868;28;20050;-65
2023/05/29 06:05:07;;;;;;;22.85;3.47;;;12.30;1.00;;;;;;5036138;28;20570;-65
2023/05/29 06:07:33;;;;;;;17.15;2.58;;;12.40;1.00;;;;;;4990546;28;20061;-65
2023/05/29 06:09:58;;;;;;;16.77;3.28;;;12.60;1.00;;;;;;4990236;28;20037;-64
2023/05/29 06:12:24;;;;;;;20.13;2.90;;;12.60;1.00;;;;;;4990109;28;20038;-65
2023/05/29 06:14:50;;;;;;;17.83;2.50;;;12.70;1.00;;;;;;5036012;28;20539;-66
2023/05/29 06:17:16;;;;;;;24.50;3.63;;;12.70;1.00;;;;;;4990743;28;20563;-65
2023/05/29 06:19:42;;;;;;;19.45;2.88;;;12.70;1.00;;;;;;5021031;28;20037;-65
2023/05/29 06:22:08;;;;;;;19.90;3.00;;;12.70;1.00;;;;;;5020838;28;20155;-65
2023/05/29 06:24:33;;;;;;;20.40;3.08;;;12.70;1.00;;;;;;5040949;28;20136;-66
2023/05/29 06:26:59;;;;;;;19.85;3.25;;;12.70;1.00;;;;;;5028622;28;20510;-65
2023/05/29 06:29:25;;;;;;;20.98;3.40;;;12.90;1.00;;;;;;5006606;28;20107;-67
2023/05/29 06:31:51;;;;;;;22.65;3.40;;;12.80;1.00;;;;;;5004701;28;20042;-65
2023/05/29 06:34:16;;;;;;;22.05;3.88;;;12.70;1.00;;;;;;4990217;28;20077;-65
2023/05/29 06:36:42;;;;;;;21.13;3.30;;;12.80;1.00;;;;;;5023161;28;20175;-65
2023/05/29 06:39:08;;;;;;;17.52;2.92;;;12.90;1.00;;;;;;4989896;28;20050;-65
2023/05/29 06:41:34;;;;;;;20.80;3.88;;;12.90;1.00;;;;;;5037818;28;20045;-66
2023/05/29 06:44:00;;;;;;;19.88;3.25;;;13.00;1.00;;;;;;5020939;28;20033;-65
2023/05/29 06:46:25;;;;;;;19.98;3.08;;;12.90;99.90;;;;;;4987991;28;20033;-65
2023/05/29 06:48:51;;;;;;;16.58;2.97;;;12.80;99.90;;;;;;5005289;28;20074;-65
2023/05/29 06:51:17;;;;;;;20.75;3.10;;;12.80;99.90;;;;;;5028869;28;20075;-67
2023/05/29 06:53:44;;;;;;;18.00;2.85;;;12.80;1.00;;;;;;5058023;28;20044;-65
2023/05/29 06:56:09;;;;;;;21.95;3.13;;;13.00;1.00;;;;;;4995061;28;20140;-65
2023/05/29 06:58:35;;;;;;;20.60;2.90;;;13.00;1.00;;;;;;5000215;28;20500;-67
2023/05/29 07:01:01;;;;;;;18.10;3.38;;;13.20;1.00;;;;;;5023111;28;20050;-66
2023/05/29 07:03:27;;;;;;;19.20;3.10;;;13.30;1.00;;;;;;5009276;28;20041;-66
2023/05/29 07:05:53;;;;;;;16.63;2.67;;;13.40;99.90;;;;;;5009582;28;20052;-66
2023/05/29 07:08:19;;;;;;;18.73;3.15;;;13.30;99.90;;;;;;5019845;28;20038;-65
2023/05/29 07:10:46;;;;;;;19.45;3.55;;;13.40;99.90;;;;;;5026592;28;20435;-65
2023/05/29 07:13:16;;;;;;;17.92;2.70;;;13.40;99.90;;;;;;4992283;28;20587;-65
2023/05/29 07:15:42;;;;;;;24.10;3.20;;;13.50;99.90;;;;;;5024811;28;20554;-66
2023/05/29 07:18:08;;;;;;;19.23;2.70;;;13.60;99.90;;;;;;4996059;28;20591;-65
2023/05/29 07:20:33;;;;;;;22.38;3.30;;;13.80;99.90;;;;;;4990546;28;20049;-66
2023/05/29 07:23:03;;;;;;;16.58;2.90;;;14.10;99.90;;;;;;5011413;28;20151;-66
2023/05/29 07:25:29;;;;;;;18.20;3.33;;;14.30;99.90;;;;;;5014398;28;20050;-65
2023/05/29 07:27:55;;;;;;;19.05;2.85;;;14.00;99.90;;;;;;4998937;28;20508;-64
2023/05/29 07:30:21;;;;;;;17.05;2.85;;;14.20;99.90;;;;;;5012289;28;20139;-65
2023/05/29 07:32:47;;;;;;;19.52;2.65;;;14.30;99.90;;;;;;4977913;28;20585;-65
2023/05/29 07:35:12;;;;;;;20.95;2.92;;;14.20;99.90;;;;;;4994025;28;20162;-65
2023/05/29 07:37:38;;;;;;;24.20;3.85;;;14.40;99.90;;;;;;4994687;28;20057;-65
2023/05/29 07:40:05;;;;;;;20.33;2.95;;;14.60;99.90;;;;;;5020210;28;20369;-66
2023/05/29 07:42:32;;;;;;;19.17;3.33;;;14.70;99.90;;;;;;5020667;28;20069;-65
2023/05/29 07:44:58;;;;;;;18.60;2.90;;;15.00;99.90;;;;;;5028459;28;20581;-65
2023/05/29 07:47:23;;;;;;;22.05;3.05;;;15.20;99.90;;;;;;4980542;28;20136;-65
2023/05/29 07:49:49;;;;;;;20.33;3.17;;;15.10;99.90;;;;;;4997642;28;20054;-65
2023/05/29 07:52:15;;;;;;;17.75;2.92;;;15.10;99.90;;;;;;5027712;28;20042;-66
2023/05/29 07:54:41;;;;;;;15.77;2.53;;;15.20;99.90;;;;;;5039162;28;20245;-65
2023/05/29 07:57:09;;;;;;;22.63;3.25;;;15.00;99.90;;;;;;4995909;28;20079;-66
2023/05/29 07:59:41;;;;;;;17.85;2.47;;;15.00;99.90;;;;;;5028847;28;20128;-65
2023/05/29 08:02:07;;;;;;;18.55;2.80;;;14.90;99.90;;;;;;5012397;28;20082;-65
2023/05/29 08:04:32;;;;;;;21.77;3.22;;;15.10;99.90;;;;;;5014881;28;20057;-66
2023/05/29 08:07:28;;;;;;;18.38;2.92;;;15.10;99.90;;;;;;5029109;28;20041;-65
2023/05/29 08:09:54;;;;;;;19.63;2.65;;;15.30;99.90;;;;;;5000165;28;20120;-65
2023/05/29 08:12:20;;;;;;;19.75;3.10;;;15.40;99.90;;;;;;4982557;28;20235;-65
2023/05/29 08:14:46;;;;;;;22.08;3.45;;;15.20;99.90;;;;;;5013827;28;20056;-65
2023/05/29 08:17:11;;;;;;;19.15;3.47;;;15.20;99.90;;;;;;5011312;28;20045;-66
2023/05/29 08:19:37;;;;;;;23.02;3.80;;;15.10;99.90;;;;;;4988118;28;20700;-66
2023/05/29 08:22:03;;;;;;;22.15;3.67;;;15.20;99.90;;;;;;4978930;28;20073;-66
2023/05/29 08:24:28;;;;;;;18.50;3.22;;;15.30;99.90;;;;;;4993770;28;20049;-66
2023/05/29 08:26:54;;;;;;;19.17;2.92;;;15.50;99.90;;;;;;5037940;28;20663;-65
2023/05/29 08:29:20;;;;;;;21.45;3.40;;;15.60;99.90;;;;;;5029168;28;20041;-65
2023/05/29 08:31:46;;;;;;;16.92;2.65;;;15.60;87.80;;;;;;4999237;28;20400;-66
2023/05/29 08:34:12;;;;;;;17.67;2.70;;;15.50;99.90;;;;;;5030138;28;20045;-65
2023/05/29 08:36:41;;;;;;;19.52;3.03;;;15.30;85.50;;;;;;5013824;28;20041;-66
2023/05/29 08:39:07;;;;;;;18.75;3.47;;;15.30;99.90;;;;;;5045083;28;20490;-66
2023/05/29 08:41:32;;;;;;;16.48;2.60;;;15.10;99.90;;;;;;5013385;28;20047;-66
2023/05/29 08:44:02;;;;;;;19.55;3.08;;;15.30;97.60;;;;;;5012966;28;20080;-66
2023/05/29 08:46:28;;;;;;;18.25;2.67;;;15.40;99.90;;;;;;4995451;28;20049;-66
2023/05/29 08:48:58;;;;;;;17.17;2.92;;;15.40;99.90;;;;;;5044852;28;20064;-65
2023/05/29 08:51:31;;;;;;;22.60;3.20;;;15.70;99.90;;;;;;5044906;28;20832;-66
2023/05/29 08:53:56;;;;;;;;;;;15.80;63.10;;;;;;5045062;28;20049;-66
2023/05/29 08:56:23;;;;;;;18.13;2.85;;;15.80;1.00;;;;;;5045460;28;19925;-66
2023/05/29 08:58:50;;;;;;;18.60;3.08;;;15.70;33.50;;;;;;5013449;28;20056;-66
2023/05/29 09:01:17;;;;;;;26.15;3.35;;;15.60;1.00;;;;;;5011755;28;20173;-66
2023/05/29 09:03:42;;;;;;;20.70;3.90;;;15.70;99.90;;;;;;4994538;28;20369;-65
2023/05/29 09:06:09;;;;;;;18.45;2.70;;;16.00;71.20;;;;;;5010954;28;20041;-66
2023/05/29 09:08:37;;;;;;;15.30;3.33;;;16.10;11.40;;;;;;4995091;28;20067;-66
2023/05/29 09:11:02;;;;;;;21.52;3.50;;;16.20;26.30;;;;;;4995608;28;20038;-66
2023/05/29 09:13:28;;;;;;;23.58;3.33;;;16.40;17.70;;;;;;5011596;28;20691;-66
2023/05/29 09:15:58;;;;;;;22.98;3.28;;;16.20;1.00;;;;;;5011263;28;20052;-66
2023/05/29 09:18:28;;;;;;;15.07;3.13;;;16.30;1.00;;;;;;5043708;28;20459;-66
2023/05/29 09:20:53;;;;;;;18.40;2.85;;;16.20;1.00;;;;;;5044205;28;20123;-66
2023/05/29 09:23:19;;;;;;;20.30;3.63;;;16.10;1.00;;;;;;4995124;28;20728;-66
2023/05/29 09:25:52;;;;;;;19.98;3.38;;;16.10;1.00;;;;;;5013250;28;20049;-66
2023/05/29 09:28:18;;;;;;;16.75;2.60;;;16.30;1.00;;;;;;4995304;28;20119;-66
2023/05/29 09:30:46;;;;;;;19.17;3.65;;;16.30;1.00;;;;;;4994996;28;20440;-66
2023/05/29 09:33:13;;;;;;;20.00;3.50;;;16.60;1.00;;;;;;5044769;28;20045;-66
2023/05/29 09:35:43;;;;;;;22.55;3.05;;;16.60;1.00;;;;;;5044958;28;20369;-66
2023/05/29 09:38:11;;;;;;;17.45;3.00;;;16.50;1.00;;;;;;5011562;28;20049;-66
2023/05/29 09:40:38;;;;;;;20.08;2.83;;;16.80;1.00;;;;;;5044033;28;20053;-66
2023/05/29 09:43:18;;;;;;;22.38;3.30;;;16.80;99.90;;;;;;5010733;28;20052;-66
2023/05/29 09:45:50;;;;;;;17.15;2.97;;;16.80;1.00;;;;;;4994565;28;20161;-66
2023/05/29 09:48:17;;;;;;;16.20;3.07;;;16.80;1.00;;;;;;5044416;28;20677;-66
2023/05/29 09:50:47;;;;;;;20.85;3.72;;;17.00;1.00;;;;;;5012135;28;20158;-66
2023/05/29 09:53:20;;;;;;;17.67;3.17;;;17.10;1.00;;;;;;5012093;28;20470;-66
2023/05/29 09:55:50;;;;;;;18.38;2.83;;;17.10;1.00;;;;;;5010755;28;20037;-66
2023/05/29 09:58:17;;;;;;;19.88;2.70;;;17.10;99.90;;;;;;5011602;28;20872;-66
2023/05/29 10:00:44;;;;;;;20.35;3.67;;;16.90;99.90;;;;;;4991205;28;20053;-66
2023/05/29 10:03:12;;;;;;;19.45;2.85;;;16.80;99.90;;;;;;4991498;28;20052;-67
2023/05/29 10:05:43;;;;;;;19.58;3.03;;;16.60;99.90;;;;;;4992449;28;20056;-66
2023/05/29 10:08:13;;;;;;;23.48;2.90;;;16.50;99.90;;;;;;5026892;28;20087;-66
2023/05/29 10:10:47;;;;;;;15.95;3.03;;;17.00;99.90;;;;;;5044026;28;20147;-66
2023/05/29 10:13:14;;;;;;;18.17;3.17;;;17.40;99.90;;;;;;5043487;28;20118;-66
2023/05/29 10:15:45;;;;;;;14.40;2.45;;;17.60;99.90;;;;;;5010167;28;20042;-65
2023/05/29 10:18:26;;;;;;;17.02;2.88;;;17.80;99.90;;;;;;4994337;28;20647;-66
2023/05/29 10:20:56;;;;;;;20.48;3.28;;;17.80;99.90;;;;;;4995118;28;20087;-66
2023/05/29 10:23:24;;;;;;;15.23;2.53;;;17.90;99.90;;;;;;5011495;28;20045;-66
2023/05/29 10:25:53;;;;;;;18.55;3.38;;;17.70;99.90;;;;;;5043494;28;20477;-65
2023/05/29 10:28:20;;;;;;;16.13;2.38;;;17.80;99.90;;;;;;5011490;28;20060;-64
2023/05/29 10:30:52;;;;;;;18.33;2.50;;;17.60;99.90;;;;;;4994467;28;20858;-65
2023/05/29 10:33:27;;;;;;;16.98;2.95;;;17.50;99.90;;;;;;4994215;28;20499;-64
2023/05/29 10:36:01;;;;;;;16.60;2.40;;;17.40;99.90;;;;;;5043308;28;20049;-65
2023/05/29 10:38:27;;;;;;;13.85;2.47;;;17.50;99.90;;;;;;5009976;28;20048;-65
2023/05/29 10:40:52;;;;;;;17.00;2.85;;;17.50;99.90;;;;;;5043553;28;20443;-66
2023/05/29 10:43:33;;;;;;;10.75;2.28;;;17.30;99.90;;;;;;5007790;28;20088;-66
2023/05/29 10:46:02;;;;;;;17.55;2.67;;;17.50;99.90;;;;;;5043088;28;20136;-65
2023/05/29 10:48:34;;;;;;;15.18;2.60;;;17.40;99.90;;;;;;5009670;28;20049;-66
2023/05/29 10:51:00;;;;;;;15.23;2.70;;;17.80;99.90;;;;;;5010534;28;20068;-66
2023/05/29 10:53:31;;;;;;;20.00;2.90;;;17.60;99.90;;;;;;5010545;28;20052;-66
2023/05/29 10:55:59;;;;;;;19.63;3.28;;;17.60;99.90;;;;;;4992928;28;20072;-65
2023/05/29 10:58:26;;;;;;;20.85;3.25;;;17.80;99.90;;;;;;5021533;28;20449;-67
2023/05/29 11:00:54;;;;;;;15.00;2.72;;;18.00;99.90;;;;;;5006912;28;20053;-65
2023/05/29 11:03:25;;;;;;;20.92;2.80;;;18.10;99.90;;;;;;5024640;28;20041;-65
2023/05/29 11:06:05;;;;;;;17.70;2.80;;;18.10;99.90;;;;;;5007234;28;20457;-65
2023/05/29 11:08:55;;;;;;;16.65;2.65;;;17.80;99.90;;;;;;5023360;28;20050;-66
2023/05/29 11:11:27;;;;;;;14.35;2.40;;;17.80;99.90;;;;;;5056107;28;20045;-65
2023/05/29 11:13:53;;;;;;;18.65;3.08;;;17.90;99.90;;;;;;5022352;28;20048;-66
2023/05/29 11:16:23;;;;;;;13.45;3.15;;;18.00;99.90;;;;;;5006875;28;20037;-65
2023/05/29 11:18:49;;;;;;;15.60;2.70;;;17.70;99.90;;;;;;5039099;28;20211;-66
2023/05/29 11:21:34;;;;;;;18.58;2.97;;;17.50;99.90;;;;;;5023140;28;20052;-65
2023/05/29 11:24:06;;;;;;;17.83;3.50;;;17.80;99.90;;;;;;5003878;28;20042;-65
2023/05/29 11:26:32;;;;;;;17.10;3.30;;;17.80;99.90;;;;;;5003132;28;20084;-65
2023/05/29 11:29:04;;;;;;;19.77;2.97;;;17.90;99.90;;;;;;5003199;28;20034;-64
2023/05/29 11:31:34;;;;;;;17.15;3.05;;;18.10;99.90;;;;;;5003929;28;20042;-66
2023/05/29 11:34:04;;;;;;;18.40;2.75;;;17.40;99.90;;;;;;5055102;28;20483;-66
2023/05/29 11:36:32;;;;;;;18.83;2.70;;;17.90;99.90;;;;;;5021932;28;20041;-66
2023/05/29 11:38:58;;;;;;;18.13;2.90;;;18.10;99.90;;;;;;5035858;28;20080;-66
2023/05/29 11:41:25;;;;;;;14.48;2.22;;;18.10;99.90;;;;;;5020774;28;20053;-66
2023/05/29 11:44:02;;;;;;;17.27;2.78;;;18.20;99.90;;;;;;5021700;28;20046;-66
2023/05/29 11:46:32;;;;;;;15.15;2.42;;;18.30;99.90;;;;;;5005649;28;20081;-66
2023/05/29 11:48:58;;;;;;;18.10;2.97;;;18.30;99.90;;;;;;5003038;28;20439;-66
2023/05/29 11:51:25;;;;;;;19.20;2.83;;;18.70;99.90;;;;;;5044754;28;20136;-67
2023/05/29 11:53:57;;;;;;;18.75;3.75;;;18.80;99.90;;;;;;5043832;28;20112;-66
2023/05/29 11:56:26;;;;;;;19.17;2.60;;;18.50;99.90;;;;;;5014604;28;20046;-68
2023/05/29 11:58:56;;;;;;;17.83;2.83;;;18.40;99.90;;;;;;5007920;28;20206;-65
2023/05/29 12:01:23;;;;;;;15.73;2.47;;;18.50;99.90;;;;;;5037933;28;20049;-66
2023/05/29 12:03:50;;;;;;;15.18;2.70;;;18.50;99.90;;;;;;5040477;28;20056;-66
2023/05/29 12:06:15;;;;;;;18.10;2.45;;;18.40;99.90;;;;;;4991377;28;20453;-66
2023/05/29 12:08:41;;;;;;;13.18;2.30;;;18.50;99.90;;;;;;4990817;28;20200;-65
2023/05/29 12:11:08;;;;;;;16.65;2.40;;;18.50;99.90;;;;;;5007744;28;20508;-67
2023/05/29 12:13:33;;;;;;;16.80;3.05;;;18.70;99.90;;;;;;5013296;28;20038;-66
2023/05/29 12:16:05;;;;;;;14.60;2.53;;;18.40;99.90;;;;;;4989275;28;20480;-66
2023/05/29 12:18:31;;;;;;;16.10;2.22;;;18.20;99.90;;;;;;5005846;28;20527;-66
2023/05/29 12:21:00;;;;;;;18.65;2.63;;;18.30;99.90;;;;;;5006996;28;20086;-66
2023/05/29 12:23:28;;;;;;;16.80;2.00;;;18.30;99.90;;;;;;5017650;28;20065;-66
2023/05/29 12:25:54;;;;;;;16.42;2.35;;;18.30;99.90;;;;;;5040718;28;20449;-66
2023/05/29 12:28:21;;;;;;;14.45;1.88;;;18.40;99.90;;;;;;5007979;28;20554;-68
2023/05/29 12:30:49;;;;;;;12.30;1.98;;;18.70;99.90;;;;;;5008905;28;20049;-65
2023/05/29 12:33:32;;;;;;;14.52;2.10;;;18.60;99.90;;;;;;5025195;28;20049;-65
2023/05/29 12:36:11;;;;;;;13.93;2.10;;;18.60;99.90;;;;;;4999720;28;20053;-66
2023/05/29 12:38:51;;;;;;;15.60;2.60;;;18.60;99.90;;;;;;5024726;28;20053;-65
2023/05/29 12:41:36;;;;;;;16.30;2.63;;;18.90;99.90;;;;;;5007773;28;20042;-65